createdAt,value
2023-03-12T00:02:52.888Z,12.90
2023-03-12T00:06:54.114Z,10.30
2023-03-12T00:10:55.191Z,10.73
2023-03-12T00:14:56.488Z,8.40
2023-03-12T00:18:57.656Z,12.20
2023-03-12T00:22:59.063Z,8.57
2023-03-12T00:27:00.184Z,7.70
2023-03-12T00:31:02.902Z,9.43
2023-03-12T00:35:05.164Z,7.93
2023-03-12T00:39:06.904Z,8.30
2023-03-12T00:43:07.933Z,9.00
2023-03-12T00:47:09.326Z,7.40
2023-03-12T00:51:11.094Z,8.40
2023-03-12T00:55:12.078Z,11.37
2023-03-12T00:59:14.328Z,7.03
2023-03-12T01:03:16.093Z,10.70
2023-03-12T01:07:17.377Z,7.77
2023-03-12T01:11:20.026Z,8.30
2023-03-12T01:15:21.106Z,8.77
2023-03-12T01:19:22.736Z,8.13
2023-03-12T01:23:23.886Z,8.03
2023-03-12T01:27:25.071Z,6.20
2023-03-12T01:31:26.472Z,6.53
2023-03-12T01:35:27.619Z,13.27
2023-03-12T01:39:29.036Z,5.63
2023-03-12T01:43:35.914Z,4.60
2023-03-12T01:47:36.924Z,5.50
2023-03-12T01:51:41.668Z,4.77
2023-03-12T01:55:43.201Z,5.47
2023-03-12T01:59:54.264Z,4.93
2023-03-12T02:03:57.519Z,3.30
2023-03-12T02:07:58.989Z,3.50
2023-03-12T02:12:00.309Z,4.30
2023-03-12T02:16:02.046Z,3.20
2023-03-12T02:20:19.223Z,3.37
2023-03-12T02:24:33.145Z,5.20
2023-03-12T02:28:38.452Z,4.40
2023-03-12T02:32:39.705Z,3.07
2023-03-12T02:36:40.864Z,5.33
2023-03-12T02:40:45.671Z,8.73
2023-03-12T02:44:46.904Z,4.23
2023-03-12T02:48:48.174Z,2.73
2023-03-12T02:52:49.326Z,2.60
2023-03-12T02:56:51.912Z,3.30
2023-03-12T03:00:52.915Z,3.47
2023-03-12T03:04:53.926Z,4.80
2023-03-12T03:08:55.137Z,6.37
2023-03-12T03:12:57.086Z,5.20
2023-03-12T03:16:58.241Z,7.00
2023-03-12T03:21:03.068Z,6.43
2023-03-12T03:25:05.918Z,6.70
2023-03-12T03:29:07.109Z,9.17
2023-03-12T03:33:08.123Z,9.07
2023-03-12T03:37:09.493Z,6.90
2023-03-12T03:41:10.518Z,6.73
2023-03-12T03:45:11.780Z,5.93
2023-03-12T03:49:12.895Z,13.27
2023-03-12T03:53:14.032Z,5.20
2023-03-12T03:57:14.980Z,7.23
2023-03-12T04:01:16.086Z,9.53
2023-03-12T04:05:19.020Z,7.70
2023-03-12T04:09:19.950Z,5.90
2023-03-12T04:13:21.800Z,6.83
2023-03-12T04:17:22.764Z,8.53
2023-03-12T04:21:23.944Z,7.50
2023-03-12T04:25:24.904Z,9.87
2023-03-12T04:29:26.228Z,10.97
2023-03-12T04:33:29.346Z,12.50
2023-03-12T04:37:33.234Z,7.27
2023-03-12T04:41:35.123Z,5.03
2023-03-12T04:45:38.571Z,5.87
2023-03-12T04:49:39.712Z,12.37
2023-03-12T04:53:40.979Z,9.60
2023-03-12T04:57:42.104Z,7.83
2023-03-12T05:01:43.458Z,4.30
2023-03-12T05:05:44.972Z,7.77
2023-03-12T05:09:46.304Z,5.33
2023-03-12T05:13:48.204Z,5.30
2023-03-12T05:17:49.166Z,11.13
2023-03-12T05:21:50.402Z,5.97
2023-03-12T05:25:51.371Z,8.93
2023-03-12T05:29:52.627Z,9.17
2023-03-12T05:33:54.148Z,9.60
2023-03-12T05:37:55.187Z,7.20
2023-03-12T05:41:56.733Z,6.67
2023-03-12T05:46:00.352Z,6.40
2023-03-12T05:50:01.284Z,9.50
2023-03-12T05:54:02.866Z,6.43
2023-03-12T05:58:05.251Z,4.57
2023-03-12T06:02:06.364Z,5.87
2023-03-12T06:06:07.457Z,7.47
2023-03-12T06:10:09.845Z,7.13
2023-03-12T06:14:12.792Z,5.33
2023-03-12T06:18:14.568Z,5.37
2023-03-12T06:22:15.660Z,5.40
2023-03-12T06:26:17.770Z,7.07
2023-03-12T06:30:18.941Z,12.67
2023-03-12T06:34:20.019Z,6.13
2023-03-12T06:38:21.637Z,11.33
2023-03-12T06:42:22.951Z,8.80
2023-03-12T06:46:25.107Z,6.60
2023-03-12T06:50:26.398Z,9.70
2023-03-12T06:54:27.585Z,10.30
2023-03-12T06:58:28.980Z,7.17
2023-03-12T07:02:30.250Z,6.43
2023-03-12T07:06:31.586Z,7.87
2023-03-12T07:10:32.687Z,9.17
2023-03-12T07:14:33.658Z,7.93
2023-03-12T07:18:34.624Z,7.90
2023-03-12T07:22:35.737Z,10.40
2023-03-12T07:26:36.843Z,10.73
2023-03-12T07:30:38.241Z,9.63
2023-03-12T07:34:39.213Z,14.57
2023-03-12T07:38:40.385Z,11.73
2023-03-12T07:42:41.423Z,10.67
2023-03-12T07:46:42.969Z,9.53
2023-03-12T07:50:44.426Z,9.80
2023-03-12T07:54:45.861Z,15.40
2023-03-12T07:58:46.996Z,14.30
2023-03-12T08:02:48.192Z,13.83
2023-03-12T08:06:49.249Z,11.33
2023-03-12T08:10:50.319Z,11.43
2023-03-12T08:14:51.599Z,10.33
2023-03-12T08:18:52.638Z,17.67
2023-03-12T08:22:53.796Z,10.83
2023-03-12T08:26:55.448Z,14.70
2023-03-12T08:30:59.483Z,13.17
2023-03-12T08:35:00.654Z,10.27
2023-03-12T08:39:01.860Z,11.60
2023-03-12T08:43:03.394Z,10.37
2023-03-12T08:47:04.735Z,9.77
2023-03-12T08:51:07.085Z,9.57
2023-03-12T08:55:09.812Z,9.40
2023-03-12T08:59:12.261Z,8.87
2023-03-12T09:03:14.381Z,9.17
2023-03-12T09:07:17.779Z,10.63
2023-03-12T09:11:18.827Z,10.20
2023-03-12T09:15:19.858Z,11.57
2023-03-12T09:19:21.004Z,12.70
2023-03-12T09:23:22.984Z,12.80
2023-03-12T09:27:24.283Z,11.57
2023-03-12T09:31:25.782Z,11.63
2023-03-12T09:35:26.812Z,12.00
2023-03-12T09:39:28.120Z,11.23
2023-03-12T09:43:35.817Z,11.93
2023-03-12T09:47:55.422Z,12.90
2023-03-12T09:51:58.216Z,12.70
2023-03-12T09:56:02.562Z,13.20
2023-03-12T10:00:06.976Z,13.53
2023-03-12T10:04:33.204Z,15.33
2023-03-12T10:08:59.202Z,13.37
2023-03-12T10:13:12.955Z,14.10
2023-03-12T10:17:39.293Z,14.10
2023-03-12T10:21:47.048Z,15.00
2023-03-12T10:26:04.179Z,16.27
2023-03-12T10:30:27.362Z,17.13
2023-03-12T10:34:41.437Z,17.97
2023-03-12T10:38:42.714Z,18.07
2023-03-12T10:42:44.162Z,18.23
2023-03-12T10:47:00.932Z,19.03
2023-03-12T10:51:08.889Z,20.70
2023-03-12T10:55:13.753Z,20.20
2023-03-12T10:59:20.613Z,22.23
2023-03-12T11:03:21.988Z,22.83
2023-03-12T11:07:31.217Z,23.17
2023-03-12T11:11:34.362Z,23.17
2023-03-12T11:15:42.260Z,29.10
2023-03-12T11:19:43.303Z,24.90
2023-03-12T11:24:00.175Z,23.87
2023-03-12T11:28:03.573Z,25.10
2023-03-12T11:32:17.089Z,27.23
2023-03-12T11:36:41.514Z,27.10
2023-03-12T11:41:03.721Z,27.20
2023-03-12T11:45:42.033Z,25.23
2023-03-12T11:49:55.625Z,24.17
2023-03-12T11:54:06.340Z,24.80
2023-03-12T11:58:27.929Z,23.30
2023-03-12T12:02:47.787Z,20.10
2023-03-12T12:06:55.447Z,19.97
2023-03-12T12:11:11.770Z,20.90
2023-03-12T12:15:22.725Z,19.33
2023-03-12T12:19:49.001Z,17.50
2023-03-12T12:24:17.050Z,15.67
2023-03-12T12:28:21.444Z,15.03
2023-03-12T12:32:41.644Z,16.53
2023-03-12T12:36:47.639Z,13.90
2023-03-12T12:40:52.541Z,10.83
2023-03-12T12:44:55.396Z,6.10
2023-03-12T12:49:05.901Z,5.10
2023-03-12T12:53:27.083Z,6.30
2023-03-12T12:57:41.020Z,7.27
2023-03-12T13:01:42.869Z,5.23
2023-03-12T13:05:49.756Z,4.40
2023-03-12T13:09:53.101Z,7.33
2023-03-12T13:14:06.946Z,6.93
2023-03-12T13:18:23.303Z,6.87
2023-03-12T13:22:40.358Z,5.43
2023-03-12T13:27:02.986Z,9.33
2023-03-12T13:31:25.939Z,5.20
2023-03-12T13:35:31.143Z,6.00
2023-03-12T13:39:34.720Z,7.13
2023-03-12T13:43:39.639Z,5.40
2023-03-12T13:47:42.807Z,7.43
2023-03-12T13:51:47.665Z,9.47
2023-03-12T13:56:07.524Z,5.50
2023-03-12T14:00:28.679Z,7.83
2023-03-12T14:04:36.219Z,7.60
2023-03-12T14:08:50.349Z,8.80
2023-03-12T14:13:07.243Z,7.43
2023-03-12T14:17:20.673Z,8.50
2023-03-12T14:21:23.604Z,9.50
2023-03-12T14:25:43.138Z,9.93
2023-03-12T14:29:47.023Z,12.07
2023-03-12T14:33:55.305Z,13.20
2023-03-12T14:38:05.873Z,15.50
2023-03-12T14:42:07.978Z,11.10
2023-03-12T14:46:21.688Z,6.70
2023-03-12T14:50:29.299Z,5.80
2023-03-12T14:54:30.444Z,8.10
2023-03-12T14:58:32.668Z,7.87
2023-03-12T15:02:37.024Z,8.20
2023-03-12T15:06:41.882Z,6.30
2023-03-12T15:10:55.524Z,7.07
2023-03-12T15:15:03.683Z,9.43
2023-03-12T15:19:05.280Z,13.40
2023-03-12T15:23:08.943Z,14.70
2023-03-12T15:27:28.905Z,11.57
2023-03-12T15:31:44.503Z,11.83
2023-03-12T15:36:01.923Z,11.50
2023-03-12T15:40:07.538Z,12.30
2023-03-12T15:44:15.376Z,16.30
2023-03-12T15:48:25.889Z,10.90
2023-03-12T15:52:30.578Z,13.47
2023-03-12T15:56:35.133Z,8.57
2023-03-12T16:00:44.162Z,9.77
2023-03-12T16:04:45.326Z,8.53
2023-03-12T16:08:50.263Z,10.20
2023-03-12T16:12:55.327Z,7.73
2023-03-12T16:16:56.597Z,15.83
2023-03-12T16:20:57.611Z,10.53
2023-03-12T16:24:58.768Z,14.03
2023-03-12T16:29:00.036Z,12.83
2023-03-12T16:33:04.959Z,18.00
2023-03-12T16:37:11.412Z,8.37
2023-03-12T16:41:15.786Z,11.73
2023-03-12T16:45:17.993Z,9.53
2023-03-12T16:49:20.282Z,13.27
2023-03-12T16:53:22.279Z,15.90
2023-03-12T16:57:36.222Z,13.03
2023-03-12T17:01:39.001Z,8.23
2023-03-12T17:05:40.204Z,8.27
2023-03-12T17:09:41.389Z,21.47
2023-03-12T17:13:43.511Z,13.13
2023-03-12T17:17:44.903Z,12.23
2023-03-12T17:21:48.095Z,10.13
2023-03-12T17:25:49.251Z,15.60
2023-03-12T17:29:50.471Z,17.10
2023-03-12T17:33:51.537Z,23.20
2023-03-12T17:37:52.680Z,17.00
2023-03-12T17:41:53.840Z,21.50
2023-03-12T17:45:54.911Z,15.27
2023-03-12T17:49:56.066Z,14.55
2023-03-12T17:53:57.092Z,15.63
2023-03-12T17:57:58.266Z,21.20
2023-03-12T18:01:59.425Z,14.43
2023-03-12T18:06:00.762Z,15.80
2023-03-12T18:10:01.940Z,14.87
2023-03-12T18:14:02.984Z,12.23
2023-03-12T18:18:04.575Z,14.53
2023-03-12T18:22:06.860Z,23.97
2023-03-12T18:26:07.834Z,14.67
2023-03-12T18:30:11.987Z,13.37
2023-03-12T18:34:13.041Z,15.90
2023-03-12T18:38:14.115Z,14.70
2023-03-12T18:42:15.163Z,13.30
2023-03-12T18:46:17.998Z,13.03
2023-03-12T18:50:19.963Z,18.20
2023-03-12T18:54:24.493Z,16.73
2023-03-12T18:58:27.432Z,20.00
2023-03-12T19:02:28.683Z,18.13
2023-03-12T19:06:40.774Z,14.30
2023-03-12T19:10:33.211Z,14.90
2023-03-12T19:14:34.358Z,18.07
2023-03-12T19:18:37.252Z,18.60
2023-03-12T19:22:38.275Z,22.03
2023-03-12T19:26:40.018Z,16.13
2023-03-12T19:30:40.976Z,19.60
2023-03-12T19:34:43.398Z,13.87
2023-03-12T19:38:44.589Z,16.93
2023-03-12T19:42:45.661Z,15.87
2023-03-12T19:46:46.808Z,15.80
2023-03-12T19:50:49.053Z,16.30
2023-03-12T19:55:03.915Z,20.07
2023-03-12T19:58:54.710Z,21.63
2023-03-12T20:02:56.281Z,11.60
2023-03-12T20:06:57.395Z,17.40
2023-03-12T20:11:03.047Z,17.33
2023-03-12T20:15:05.344Z,17.43
2023-03-12T20:19:06.540Z,23.47
2023-03-12T20:23:08.135Z,20.50
2023-03-12T20:27:09.356Z,14.70
2023-03-12T20:31:13.288Z,19.87
2023-03-12T20:35:14.551Z,21.70
2023-03-12T20:39:16.062Z,19.63
2023-03-12T20:43:17.422Z,20.97
2023-03-12T20:47:18.493Z,15.43
2023-03-12T20:51:19.681Z,14.27
2023-03-12T20:55:20.787Z,18.03
2023-03-12T20:59:21.903Z,18.57
2023-03-12T21:03:24.301Z,17.20
2023-03-12T21:07:25.351Z,16.80
2023-03-12T21:11:26.533Z,16.27
2023-03-12T21:15:27.942Z,33.77
2023-03-12T21:19:29.641Z,19.33
2023-03-12T21:23:31.853Z,18.20
2023-03-12T21:27:44.578Z,18.80
2023-03-12T21:31:36.350Z,19.43
2023-03-12T21:35:37.349Z,16.00
2023-03-12T21:39:38.512Z,17.47
2023-03-12T21:43:40.292Z,14.47
2023-03-12T21:47:41.268Z,20.73
2023-03-12T21:51:42.246Z,20.47
2023-03-12T21:55:47.202Z,17.27
2023-03-12T21:59:48.426Z,13.60
2023-03-12T22:03:49.784Z,16.93
2023-03-12T22:07:50.777Z,23.67
2023-03-12T22:11:51.916Z,19.53
2023-03-12T22:16:01.459Z,21.50
2023-03-12T22:20:03.234Z,18.63
2023-03-12T22:24:04.823Z,19.50
2023-03-12T22:28:05.892Z,20.60
2023-03-12T22:32:07.005Z,20.60
2023-03-12T22:36:11.823Z,17.00
2023-03-12T22:40:13.666Z,9.90
2023-03-12T22:44:14.630Z,19.50
2023-03-12T22:48:15.622Z,19.20
2023-03-12T22:52:16.744Z,16.47
2023-03-12T22:56:17.848Z,21.83
2023-03-12T23:00:23.155Z,20.23
2023-03-12T23:04:24.267Z,20.10
2023-03-12T23:08:25.999Z,18.80
2023-03-12T23:12:28.116Z,13.13
2023-03-12T23:16:29.457Z,15.83
2023-03-12T23:20:30.597Z,15.63
2023-03-12T23:24:32.089Z,22.07
2023-03-12T23:28:33.357Z,16.07
2023-03-12T23:32:34.621Z,12.97
2023-03-12T23:36:35.601Z,21.07
2023-03-12T23:40:36.644Z,19.60
2023-03-12T23:44:38.310Z,16.53
2023-03-12T23:48:40.544Z,13.17
2023-03-12T23:52:41.517Z,20.80
2023-03-12T23:56:42.618Z,15.27
